sensor_id;sensor_type;location;lat;lon;timestamp;P1;durP1;ratioP1;P2;durP2;ratioP2
38379;SDS011;38377;47.418;18.882;2023-11-21T00:00:16;13.75;;;10.15;;
38379;SDS011;38377;47.418;18.882;2023-11-21T00:02:43;17.52;;;10.60;;
38379;SDS011;38377;47.418;18.882;2023-11-21T00:05:10;12.90;;;9.70;;
38379;SDS011;38377;47.418;18.882;2023-11-21T00:07:39;14.73;;;9.60;;
38379;SDS011;38377;47.418;18.882;2023-11-21T00:10:05;13.77;;;9.65;;
38379;SDS011;38377;47.418;18.882;2023-11-21T00:12:33;13.80;;;8.50;;
38379;SDS011;38377;47.418;18.882;2023-11-21T00:14:59;12.23;;;8.87;;
38379;SDS011;38377;47.418;18.882;2023-11-21T00:17:26;15.47;;;8.90;;
38379;SDS011;38377;47.418;18.882;2023-11-21T00:19:52;11.13;;;8.47;;
38379;SDS011;38377;47.418;18.882;2023-11-21T00:22:18;14.40;;;9.43;;
38379;SDS011;38377;47.418;18.882;2023-11-21T00:24:44;11.23;;;8.37;;
38379;SDS011;38377;47.418;18.882;2023-11-21T00:27:11;12.20;;;8.00;;
38379;SDS011;38377;47.418;18.882;2023-11-21T00:29:36;12.57;;;8.90;;
38379;SDS011;38377;47.418;18.882;2023-11-21T00:32:03;14.83;;;9.50;;
38379;SDS011;38377;47.418;18.882;2023-11-21T00:34:30;17.37;;;10.33;;
38379;SDS011;38377;47.418;18.882;2023-11-21T00:36:56;17.50;;;10.67;;
38379;SDS011;38377;47.418;18.882;2023-11-21T00:39:23;15.48;;;10.27;;
38379;SDS011;38377;47.418;18.882;2023-11-21T00:41:49;13.02;;;8.90;;
38379;SDS011;38377;47.418;18.882;2023-11-21T00:44:15;13.00;;;8.93;;
38379;SDS011;38377;47.418;18.882;2023-11-21T00:46:41;23.97;;;12.97;;
38379;SDS011;38377;47.418;18.882;2023-11-21T00:49:07;14.82;;;11.68;;
38379;SDS011;38377;47.418;18.882;2023-11-21T00:51:33;19.10;;;11.73;;
38379;SDS011;38377;47.418;18.882;2023-11-21T00:53:59;17.93;;;13.43;;
38379;SDS011;38377;47.418;18.882;2023-11-21T00:56:25;19.38;;;14.13;;
38379;SDS011;38377;47.418;18.882;2023-11-21T00:58:50;18.50;;;12.82;;
38379;SDS011;38377;47.418;18.882;2023-11-21T01:01:18;18.05;;;13.30;;
38379;SDS011;38377;47.418;18.882;2023-11-21T01:03:47;19.52;;;13.15;;
38379;SDS011;38377;47.418;18.882;2023-11-21T01:06:13;17.17;;;11.83;;
38379;SDS011;38377;47.418;18.882;2023-11-21T01:08:39;21.75;;;11.93;;
38379;SDS011;38377;47.418;18.882;2023-11-21T01:11:05;18.73;;;12.67;;
38379;SDS011;38377;47.418;18.882;2023-11-21T01:13:33;19.60;;;12.93;;
38379;SDS011;38377;47.418;18.882;2023-11-21T01:16:01;20.42;;;13.25;;
38379;SDS011;38377;47.418;18.882;2023-11-21T01:18:26;20.40;;;12.38;;
38379;SDS011;38377;47.418;18.882;2023-11-21T01:20:55;16.87;;;11.17;;
38379;SDS011;38377;47.418;18.882;2023-11-21T01:23:27;17.58;;;12.15;;
38379;SDS011;38377;47.418;18.882;2023-11-21T01:25:54;17.77;;;11.73;;
38379;SDS011;38377;47.418;18.882;2023-11-21T01:28:21;19.42;;;11.65;;
38379;SDS011;38377;47.418;18.882;2023-11-21T01:30:48;17.87;;;12.07;;
38379;SDS011;38377;47.418;18.882;2023-11-21T01:33:16;18.98;;;12.70;;
38379;SDS011;38377;47.418;18.882;2023-11-21T01:35:43;18.27;;;11.90;;
38379;SDS011;38377;47.418;18.882;2023-11-21T01:38:11;17.80;;;12.27;;
38379;SDS011;38377;47.418;18.882;2023-11-21T01:40:37;18.90;;;12.40;;
38379;SDS011;38377;47.418;18.882;2023-11-21T01:43:03;22.97;;;13.37;;
38379;SDS011;38377;47.418;18.882;2023-11-21T01:45:29;18.17;;;12.33;;
38379;SDS011;38377;47.418;18.882;2023-11-21T01:47:56;18.97;;;12.83;;
38379;SDS011;38377;47.418;18.882;2023-11-21T01:50:23;16.90;;;12.47;;
38379;SDS011;38377;47.418;18.882;2023-11-21T01:52:49;17.23;;;12.73;;
38379;SDS011;38377;47.418;18.882;2023-11-21T01:55:16;18.87;;;12.10;;
38379;SDS011;38377;47.418;18.882;2023-11-21T01:57:43;19.90;;;11.80;;
38379;SDS011;38377;47.418;18.882;2023-11-21T02:00:11;17.80;;;11.57;;
38379;SDS011;38377;47.418;18.882;2023-11-21T02:02:44;16.57;;;11.87;;
38379;SDS011;38377;47.418;18.882;2023-11-21T02:05:12;15.67;;;12.07;;
38379;SDS011;38377;47.418;18.882;2023-11-21T02:07:44;17.20;;;12.33;;
38379;SDS011;38377;47.418;18.882;2023-11-21T02:10:13;18.73;;;11.67;;
38379;SDS011;38377;47.418;18.882;2023-11-21T02:12:43;18.47;;;13.40;;
38379;SDS011;38377;47.418;18.882;2023-11-21T02:15:13;19.43;;;13.17;;
38379;SDS011;38377;47.418;18.882;2023-11-21T02:17:51;18.87;;;12.57;;
38379;SDS011;38377;47.418;18.882;2023-11-21T02:20:19;17.97;;;12.50;;
38379;SDS011;38377;47.418;18.882;2023-11-21T02:22:49;18.10;;;11.67;;
38379;SDS011;38377;47.418;18.882;2023-11-21T02:25:21;14.87;;;10.87;;
38379;SDS011;38377;47.418;18.882;2023-11-21T02:27:50;14.67;;;10.43;;
38379;SDS011;38377;47.418;18.882;2023-11-21T02:30:21;15.95;;;11.48;;
38379;SDS011;38377;47.418;18.882;2023-11-21T02:32:50;15.27;;;10.75;;
38379;SDS011;38377;47.418;18.882;2023-11-21T02:35:25;15.45;;;9.68;;
38379;SDS011;38377;47.418;18.882;2023-11-21T02:37:54;15.57;;;10.50;;
38379;SDS011;38377;47.418;18.882;2023-11-21T02:40:22;13.93;;;10.23;;
38379;SDS011;38377;47.418;18.882;2023-11-21T02:42:50;13.65;;;10.15;;
38379;SDS011;38377;47.418;18.882;2023-11-21T02:45:16;17.52;;;10.57;;
38379;SDS011;38377;47.418;18.882;2023-11-21T02:47:44;12.13;;;10.02;;
38379;SDS011;38377;47.418;18.882;2023-11-21T02:50:10;18.10;;;10.47;;
38379;SDS011;38377;47.418;18.882;2023-11-21T02:52:36;14.35;;;10.57;;
38379;SDS011;38377;47.418;18.882;2023-11-21T02:55:02;15.03;;;10.27;;
38379;SDS011;38377;47.418;18.882;2023-11-21T02:57:28;15.48;;;10.77;;
38379;SDS011;38377;47.418;18.882;2023-11-21T02:59:54;14.07;;;10.57;;
38379;SDS011;38377;47.418;18.882;2023-11-21T03:02:20;16.53;;;9.90;;
38379;SDS011;38377;47.418;18.882;2023-11-21T03:04:46;16.33;;;10.10;;
38379;SDS011;38377;47.418;18.882;2023-11-21T03:07:14;14.13;;;9.77;;
38379;SDS011;38377;47.418;18.882;2023-11-21T03:09:40;12.50;;;9.10;;
38379;SDS011;38377;47.418;18.882;2023-11-21T03:12:06;10.93;;;8.63;;
38379;SDS011;38377;47.418;18.882;2023-11-21T03:14:33;11.38;;;8.65;;
38379;SDS011;38377;47.418;18.882;2023-11-21T03:16:59;10.10;;;7.73;;
38379;SDS011;38377;47.418;18.882;2023-11-21T03:19:25;10.27;;;7.55;;
38379;SDS011;38377;47.418;18.882;2023-11-21T03:21:51;12.27;;;7.10;;
38379;SDS011;38377;47.418;18.882;2023-11-21T03:24:18;12.20;;;7.07;;
38379;SDS011;38377;47.418;18.882;2023-11-21T03:26:45;11.40;;;7.53;;
38379;SDS011;38377;47.418;18.882;2023-11-21T03:29:11;14.98;;;7.80;;
38379;SDS011;38377;47.418;18.882;2023-11-21T03:31:37;10.35;;;7.00;;
38379;SDS011;38377;47.418;18.882;2023-11-21T03:34:03;10.88;;;7.65;;
38379;SDS011;38377;47.418;18.882;2023-11-21T03:36:29;12.25;;;7.47;;
38379;SDS011;38377;47.418;18.882;2023-11-21T03:38:55;8.70;;;7.10;;
38379;SDS011;38377;47.418;18.882;2023-11-21T03:41:20;10.73;;;7.38;;
38379;SDS011;38377;47.418;18.882;2023-11-21T03:43:46;12.15;;;7.53;;
38379;SDS011;38377;47.418;18.882;2023-11-21T03:46:12;10.68;;;6.82;;
38379;SDS011;38377;47.418;18.882;2023-11-21T03:48:38;10.88;;;6.97;;
38379;SDS011;38377;47.418;18.882;2023-11-21T03:51:04;9.82;;;6.35;;
38379;SDS011;38377;47.418;18.882;2023-11-21T03:53:29;8.35;;;6.18;;
38379;SDS011;38377;47.418;18.882;2023-11-21T03:55:56;10.95;;;6.35;;
38379;SDS011;38377;47.418;18.882;2023-11-21T03:58:22;8.18;;;5.90;;
38379;SDS011;38377;47.418;18.882;2023-11-21T04:00:48;6.75;;;5.72;;
38379;SDS011;38377;47.418;18.882;2023-11-21T04:03:16;9.10;;;6.13;;
38379;SDS011;38377;47.418;18.882;2023-11-21T04:05:42;9.32;;;6.18;;
38379;SDS011;38377;47.418;18.882;2023-11-21T04:08:08;10.10;;;6.47;;
38379;SDS011;38377;47.418;18.882;2023-11-21T04:10:34;9.98;;;6.45;;
38379;SDS011;38377;47.418;18.882;2023-11-21T04:13:00;9.10;;;6.72;;
38379;SDS011;38377;47.418;18.882;2023-11-21T04:15:25;10.25;;;6.20;;
38379;SDS011;38377;47.418;18.882;2023-11-21T04:17:51;8.52;;;6.60;;
38379;SDS011;38377;47.418;18.882;2023-11-21T04:20:17;10.25;;;6.10;;
38379;SDS011;38377;47.418;18.882;2023-11-21T04:22:44;10.82;;;6.32;;
38379;SDS011;38377;47.418;18.882;2023-11-21T04:25:10;11.48;;;6.72;;
38379;SDS011;38377;47.418;18.882;2023-11-21T04:27:41;9.48;;;7.15;;
38379;SDS011;38377;47.418;18.882;2023-11-21T04:30:12;9.82;;;7.07;;
38379;SDS011;38377;47.418;18.882;2023-11-21T04:32:44;10.68;;;7.07;;
38379;SDS011;38377;47.418;18.882;2023-11-21T04:35:09;12.25;;;6.70;;
38379;SDS011;38377;47.418;18.882;2023-11-21T04:37:35;9.85;;;7.03;;
38379;SDS011;38377;47.418;18.882;2023-11-21T04:40:04;10.85;;;7.35;;
38379;SDS011;38377;47.418;18.882;2023-11-21T04:42:36;11.25;;;7.30;;
38379;SDS011;38377;47.418;18.882;2023-11-21T04:45:05;9.55;;;6.60;;
38379;SDS011;38377;47.418;18.882;2023-11-21T04:47:36;8.95;;;6.95;;
38379;SDS011;38377;47.418;18.882;2023-11-21T04:50:02;11.97;;;7.53;;
38379;SDS011;38377;47.418;18.882;2023-11-21T04:52:29;12.88;;;6.82;;
38379;SDS011;38377;47.418;18.882;2023-11-21T04:54:55;10.98;;;7.78;;
38379;SDS011;38377;47.418;18.882;2023-11-21T04:57:23;10.80;;;7.27;;
38379;SDS011;38377;47.418;18.882;2023-11-21T04:59:49;10.05;;;7.15;;
38379;SDS011;38377;47.418;18.882;2023-11-21T05:02:15;10.27;;;7.30;;
38379;SDS011;38377;47.418;18.882;2023-11-21T05:04:41;11.40;;;7.37;;
38379;SDS011;38377;47.418;18.882;2023-11-21T05:07:08;11.75;;;7.13;;
38379;SDS011;38377;47.418;18.882;2023-11-21T05:09:34;13.50;;;7.90;;
38379;SDS011;38377;47.418;18.882;2023-11-21T05:12:01;11.07;;;7.55;;
38379;SDS011;38377;47.418;18.882;2023-11-21T05:14:27;15.27;;;8.23;;
38379;SDS011;38377;47.418;18.882;2023-11-21T05:16:52;11.20;;;7.65;;
38379;SDS011;38377;47.418;18.882;2023-11-21T05:19:18;10.60;;;7.60;;
38379;SDS011;38377;47.418;18.882;2023-11-21T05:21:44;10.95;;;6.88;;
38379;SDS011;38377;47.418;18.882;2023-11-21T05:24:10;7.75;;;6.30;;
38379;SDS011;38377;47.418;18.882;2023-11-21T05:26:36;10.55;;;6.65;;
38379;SDS011;38377;47.418;18.882;2023-11-21T05:29:01;10.52;;;6.57;;
38379;SDS011;38377;47.418;18.882;2023-11-21T05:31:27;10.52;;;6.25;;
38379;SDS011;38377;47.418;18.882;2023-11-21T05:33:53;12.85;;;7.45;;
38379;SDS011;38377;47.418;18.882;2023-11-21T05:36:19;11.75;;;7.60;;
38379;SDS011;38377;47.418;18.882;2023-11-21T05:38:44;14.52;;;7.00;;
38379;SDS011;38377;47.418;18.882;2023-11-21T05:41:11;8.40;;;6.60;;
38379;SDS011;38377;47.418;18.882;2023-11-21T05:43:38;8.38;;;6.65;;
38379;SDS011;38377;47.418;18.882;2023-11-21T05:46:04;9.57;;;7.35;;
38379;SDS011;38377;47.418;18.882;2023-11-21T05:48:32;11.50;;;7.95;;
38379;SDS011;38377;47.418;18.882;2023-11-21T05:50:58;14.70;;;9.90;;
38379;SDS011;38377;47.418;18.882;2023-11-21T05:53:24;22.20;;;14.38;;
38379;SDS011;38377;47.418;18.882;2023-11-21T05:55:50;20.25;;;11.80;;
38379;SDS011;38377;47.418;18.882;2023-11-21T05:58:15;15.73;;;10.88;;
38379;SDS011;38377;47.418;18.882;2023-11-21T06:00:41;16.35;;;10.55;;
38379;SDS011;38377;47.418;18.882;2023-11-21T06:03:07;13.55;;;10.57;;
38379;SDS011;38377;47.418;18.882;2023-11-21T06:05:33;13.10;;;9.45;;
38379;SDS011;38377;47.418;18.882;2023-11-21T06:07:58;10.93;;;8.80;;
38379;SDS011;38377;47.418;18.882;2023-11-21T06:10:25;11.40;;;8.85;;
38379;SDS011;38377;47.418;18.882;2023-11-21T06:12:52;14.65;;;9.35;;
38379;SDS011;38377;47.418;18.882;2023-11-21T06:15:18;13.93;;;9.27;;
38379;SDS011;38377;47.418;18.882;2023-11-21T06:17:44;14.63;;;10.18;;
38379;SDS011;38377;47.418;18.882;2023-11-21T06:20:14;15.68;;;10.38;;
38379;SDS011;38377;47.418;18.882;2023-11-21T06:22:43;15.00;;;9.70;;
38379;SDS011;38377;47.418;18.882;2023-11-21T06:25:10;15.50;;;8.80;;
38379;SDS011;38377;47.418;18.882;2023-11-21T06:27:38;16.95;;;9.27;;
38379;SDS011;38377;47.418;18.882;2023-11-21T06:30:09;13.45;;;8.25;;
38379;SDS011;38377;47.418;18.882;2023-11-21T06:32:37;12.77;;;8.90;;
38379;SDS011;38377;47.418;18.882;2023-11-21T06:35:04;18.17;;;9.57;;
38379;SDS011;38377;47.418;18.882;2023-11-21T06:37:30;15.15;;;9.63;;
38379;SDS011;38377;47.418;18.882;2023-11-21T06:39:57;14.02;;;9.57;;
38379;SDS011;38377;47.418;18.882;2023-11-21T06:42:23;11.25;;;9.07;;
38379;SDS011;38377;47.418;18.882;2023-11-21T06:44:52;11.50;;;8.88;;
38379;SDS011;38377;47.418;18.882;2023-11-21T06:47:22;11.70;;;8.60;;
38379;SDS011;38377;47.418;18.882;2023-11-21T06:49:50;14.13;;;9.10;;
38379;SDS011;38377;47.418;18.882;2023-11-21T06:52:16;12.75;;;8.52;;
38379;SDS011;38377;47.418;18.882;2023-11-21T06:54:43;15.57;;;9.00;;
38379;SDS011;38377;47.418;18.882;2023-11-21T06:57:10;15.10;;;8.90;;
38379;SDS011;38377;47.418;18.882;2023-11-21T06:59:36;12.73;;;7.75;;
38379;SDS011;38377;47.418;18.882;2023-11-21T07:02:02;14.98;;;8.63;;
38379;SDS011;38377;47.418;18.882;2023-11-21T07:04:29;10.05;;;7.15;;
38379;SDS011;38377;47.418;18.882;2023-11-21T07:06:57;11.05;;;7.43;;
38379;SDS011;38377;47.418;18.882;2023-11-21T07:09:23;10.48;;;7.80;;
38379;SDS011;38377;47.418;18.882;2023-11-21T07:11:49;11.48;;;7.25;;
38379;SDS011;38377;47.418;18.882;2023-11-21T07:14:15;13.82;;;7.25;;
38379;SDS011;38377;47.418;18.882;2023-11-21T07:16:42;14.32;;;6.70;;
38379;SDS011;38377;47.418;18.882;2023-11-21T07:19:07;9.32;;;6.22;;
38379;SDS011;38377;47.418;18.882;2023-11-21T07:21:33;9.57;;;5.72;;
38379;SDS011;38377;47.418;18.882;2023-11-21T07:24:00;40.00;;;17.42;;
38379;SDS011;38377;47.418;18.882;2023-11-21T07:26:27;19.95;;;10.40;;
38379;SDS011;38377;47.418;18.882;2023-11-21T07:28:53;23.50;;;12.30;;
38379;SDS011;38377;47.418;18.882;2023-11-21T07:31:19;19.80;;;11.55;;
38379;SDS011;38377;47.418;18.882;2023-11-21T07:33:48;11.32;;;7.75;;
38379;SDS011;38377;47.418;18.882;2023-11-21T07:36:14;16.23;;;10.23;;
38379;SDS011;38377;47.418;18.882;2023-11-21T07:38:55;13.23;;;8.88;;
38379;SDS011;38377;47.418;18.882;2023-11-21T07:41:20;12.02;;;6.90;;
38379;SDS011;38377;47.418;18.882;2023-11-21T07:43:47;9.27;;;6.60;;
38379;SDS011;38377;47.418;18.882;2023-11-21T07:46:13;7.05;;;5.43;;
38379;SDS011;38377;47.418;18.882;2023-11-21T07:48:40;5.93;;;4.50;;
38379;SDS011;38377;47.418;18.882;2023-11-21T07:51:07;4.72;;;3.78;;
38379;SDS011;38377;47.418;18.882;2023-11-21T07:53:34;9.98;;;5.70;;
38379;SDS011;38377;47.418;18.882;2023-11-21T07:56:03;6.72;;;5.50;;
38379;SDS011;38377;47.418;18.882;2023-11-21T07:58:30;7.95;;;5.47;;
38379;SDS011;38377;47.418;18.882;2023-11-21T08:00:58;7.57;;;4.78;;
38379;SDS011;38377;47.418;18.882;2023-11-21T08:03:24;9.40;;;4.20;;
38379;SDS011;38377;47.418;18.882;2023-11-21T08:05:54;7.90;;;4.47;;
38379;SDS011;38377;47.418;18.882;2023-11-21T08:08:21;9.45;;;4.20;;
38379;SDS011;38377;47.418;18.882;2023-11-21T08:10:47;7.78;;;4.70;;
38379;SDS011;38377;47.418;18.882;2023-11-21T08:13:24;9.45;;;4.13;;
38379;SDS011;38377;47.418;18.882;2023-11-21T08:15:53;9.02;;;5.28;;
38379;SDS011;38377;47.418;18.882;2023-11-21T08:18:20;8.30;;;5.50;;
38379;SDS011;38377;47.418;18.882;2023-11-21T08:20:45;7.32;;;4.43;;
38379;SDS011;38377;47.418;18.882;2023-11-21T08:23:14;6.18;;;3.42;;
38379;SDS011;38377;47.418;18.882;2023-11-21T08:25:42;7.07;;;4.70;;
38379;SDS011;38377;47.418;18.882;2023-11-21T08:28:08;9.63;;;6.97;;
38379;SDS011;38377;47.418;18.882;2023-11-21T08:30:35;12.52;;;9.77;;
38379;SDS011;38377;47.418;18.882;2023-11-21T08:33:00;8.02;;;5.68;;
38379;SDS011;38377;47.418;18.882;2023-11-21T08:35:28;7.95;;;5.90;;
38379;SDS011;38377;47.418;18.882;2023-11-21T08:37:54;10.10;;;4.85;;
38379;SDS011;38377;47.418;18.882;2023-11-21T08:40:20;6.97;;;4.82;;
38379;SDS011;38377;47.418;18.882;2023-11-21T08:42:46;11.05;;;5.82;;
38379;SDS011;38377;47.418;18.882;2023-11-21T08:45:13;7.93;;;5.88;;
38379;SDS011;38377;47.418;18.882;2023-11-21T08:47:40;8.13;;;7.00;;
38379;SDS011;38377;47.418;18.882;2023-11-21T08:50:06;10.02;;;7.25;;
38379;SDS011;38377;47.418;18.882;2023-11-21T08:52:33;13.70;;;10.20;;
38379;SDS011;38377;47.418;18.882;2023-11-21T08:54:59;12.98;;;7.78;;
38379;SDS011;38377;47.418;18.882;2023-11-21T08:57:30;9.82;;;6.72;;
38379;SDS011;38377;47.418;18.882;2023-11-21T08:59:55;5.68;;;4.32;;
38379;SDS011;38377;47.418;18.882;2023-11-21T09:02:27;7.07;;;4.80;;
38379;SDS011;38377;47.418;18.882;2023-11-21T09:04:53;9.95;;;5.78;;
38379;SDS011;38377;47.418;18.882;2023-11-21T09:07:19;8.05;;;5.97;;
38379;SDS011;38377;47.418;18.882;2023-11-21T09:09:46;9.25;;;5.13;;
38379;SDS011;38377;47.418;18.882;2023-11-21T09:12:13;8.55;;;4.00;;
38379;SDS011;38377;47.418;18.882;2023-11-21T09:14:50;9.43;;;3.95;;
38379;SDS011;38377;47.418;18.882;2023-11-21T09:17:18;3.95;;;3.03;;
38379;SDS011;38377;47.418;18.882;2023-11-21T09:19:51;5.78;;;3.40;;
38379;SDS011;38377;47.418;18.882;2023-11-21T09:22:21;4.70;;;2.83;;
38379;SDS011;38377;47.418;18.882;2023-11-21T09:24:50;5.32;;;3.10;;
38379;SDS011;38377;47.418;18.882;2023-11-21T09:27:17;5.68;;;3.33;;
38379;SDS011;38377;47.418;18.882;2023-11-21T09:29:43;4.82;;;3.38;;
38379;SDS011;38377;47.418;18.882;2023-11-21T09:32:09;5.18;;;3.63;;
38379;SDS011;38377;47.418;18.882;2023-11-21T09:34:37;6.43;;;3.90;;
38379;SDS011;38377;47.418;18.882;2023-11-21T09:37:06;5.55;;;3.25;;
38379;SDS011;38377;47.418;18.882;2023-11-21T09:39:33;7.07;;;4.10;;
38379;SDS011;38377;47.418;18.882;2023-11-21T09:42:04;6.90;;;3.72;;
38379;SDS011;38377;47.418;18.882;2023-11-21T09:44:39;9.85;;;4.55;;
38379;SDS011;38377;47.418;18.882;2023-11-21T09:47:10;4.18;;;3.60;;
38379;SDS011;38377;47.418;18.882;2023-11-21T09:52:18;4.15;;;2.90;;
38379;SDS011;38377;47.418;18.882;2023-11-21T09:54:50;5.97;;;2.40;;
38379;SDS011;38377;47.418;18.882;2023-11-21T09:57:19;3.35;;;2.47;;
38379;SDS011;38377;47.418;18.882;2023-11-21T09:59:52;3.55;;;2.45;;
38379;SDS011;38377;47.418;18.882;2023-11-21T10:02:27;5.93;;;2.78;;
38379;SDS011;38377;47.418;18.882;2023-11-21T10:04:55;6.15;;;2.90;;
38379;SDS011;38377;47.418;18.882;2023-11-21T10:07:21;5.88;;;3.00;;
38379;SDS011;38377;47.418;18.882;2023-11-21T10:09:48;7.80;;;3.45;;
38379;SDS011;38377;47.418;18.882;2023-11-21T10:12:17;4.75;;;3.03;;
38379;SDS011;38377;47.418;18.882;2023-11-21T10:14:45;4.20;;;3.53;;
38379;SDS011;38377;47.418;18.882;2023-11-21T10:17:13;3.35;;;2.53;;
38379;SDS011;38377;47.418;18.882;2023-11-21T10:19:46;5.07;;;2.08;;
38379;SDS011;38377;47.418;18.882;2023-11-21T10:22:13;5.13;;;2.67;;
38379;SDS011;38377;47.418;18.882;2023-11-21T10:24:42;2.85;;;1.90;;
38379;SDS011;38377;47.418;18.882;2023-11-21T10:27:08;7.75;;;4.13;;
38379;SDS011;38377;47.418;18.882;2023-11-21T10:29:34;8.57;;;3.80;;
38379;SDS011;38377;47.418;18.882;2023-11-21T10:32:03;8.60;;;4.05;;
38379;SDS011;38377;47.418;18.882;2023-11-21T10:34:30;6.78;;;3.45;;
38379;SDS011;38377;47.418;18.882;2023-11-21T10:36:56;7.20;;;3.30;;
38379;SDS011;38377;47.418;18.882;2023-11-21T10:39:23;5.53;;;2.95;;
38379;SDS011;38377;47.418;18.882;2023-11-21T10:41:52;5.28;;;2.40;;
38379;SDS011;38377;47.418;18.882;2023-11-21T10:44:20;5.28;;;2.40;;
38379;SDS011;38377;47.418;18.882;2023-11-21T10:46:53;8.27;;;3.40;;
38379;SDS011;38377;47.418;18.882;2023-11-21T10:49:24;5.85;;;2.72;;
38379;SDS011;38377;47.418;18.882;2023-11-21T10:51:51;4.90;;;2.20;;
38379;SDS011;38377;47.418;18.882;2023-11-21T10:54:21;4.35;;;2.28;;
38379;SDS011;38377;47.418;18.882;2023-11-21T10:56:48;5.72;;;2.45;;
38379;SDS011;38377;47.418;18.882;2023-11-21T10:59:18;3.50;;;2.28;;
38379;SDS011;38377;47.418;18.882;2023-11-21T11:01:46;5.03;;;2.80;;
38379;SDS011;38377;47.418;18.882;2023-11-21T11:04:14;5.95;;;3.75;;
38379;SDS011;38377;47.418;18.882;2023-11-21T11:06:43;7.97;;;4.63;;
38379;SDS011;38377;47.418;18.882;2023-11-21T11:09:13;7.32;;;4.18;;
38379;SDS011;38377;47.418;18.882;2023-11-21T11:11:42;7.88;;;4.75;;
38379;SDS011;38377;47.418;18.882;2023-11-21T11:14:11;8.05;;;3.85;;
38379;SDS011;38377;47.418;18.882;2023-11-21T11:16:38;6.35;;;3.10;;
38379;SDS011;38377;47.418;18.882;2023-11-21T11:19:11;8.18;;;4.45;;
38379;SDS011;38377;47.418;18.882;2023-11-21T11:24:32;5.38;;;3.60;;
38379;SDS011;38377;47.418;18.882;2023-11-21T11:29:59;5.15;;;3.08;;
38379;SDS011;38377;47.418;18.882;2023-11-21T11:33:04;4.63;;;3.47;;
38379;SDS011;38377;47.418;18.882;2023-11-21T11:38:21;4.47;;;2.45;;
38379;SDS011;38377;47.418;18.882;2023-11-21T11:40:52;5.35;;;2.38;;
38379;SDS011;38377;47.418;18.882;2023-11-21T11:43:25;5.85;;;2.80;;
38379;SDS011;38377;47.418;18.882;2023-11-21T11:45:52;3.85;;;2.70;;
38379;SDS011;38377;47.418;18.882;2023-11-21T11:48:21;6.75;;;3.05;;
38379;SDS011;38377;47.418;18.882;2023-11-21T11:53:35;6.43;;;3.22;;
38379;SDS011;38377;47.418;18.882;2023-11-21T11:58:51;6.13;;;2.80;;
38379;SDS011;38377;47.418;18.882;2023-11-21T12:01:21;5.50;;;3.17;;
38379;SDS011;38377;47.418;18.882;2023-11-21T12:04:22;5.32;;;3.40;;
38379;SDS011;38377;47.418;18.882;2023-11-21T12:06:39;6.53;;;3.63;;
38379;SDS011;38377;47.418;18.882;2023-11-21T12:09:06;8.48;;;3.95;;
38379;SDS011;38377;47.418;18.882;2023-11-21T12:11:32;12.50;;;5.43;;
38379;SDS011;38377;47.418;18.882;2023-11-21T12:14:00;6.68;;;4.97;;
38379;SDS011;38377;47.418;18.882;2023-11-21T12:16:27;7.32;;;3.70;;
38379;SDS011;38377;47.418;18.882;2023-11-21T12:18:53;5.43;;;3.88;;
38379;SDS011;38377;47.418;18.882;2023-11-21T12:21:19;8.80;;;6.85;;
38379;SDS011;38377;47.418;18.882;2023-11-21T12:23:46;9.25;;;5.00;;
38379;SDS011;38377;47.418;18.882;2023-11-21T12:26:12;5.10;;;3.65;;
38379;SDS011;38377;47.418;18.882;2023-11-21T12:28:38;3.90;;;2.55;;
38379;SDS011;38377;47.418;18.882;2023-11-21T12:31:04;5.65;;;2.90;;
38379;SDS011;38377;47.418;18.882;2023-11-21T12:33:32;5.03;;;3.08;;
38379;SDS011;38377;47.418;18.882;2023-11-21T12:35:58;7.22;;;3.35;;
38379;SDS011;38377;47.418;18.882;2023-11-21T12:38:24;6.65;;;3.08;;
38379;SDS011;38377;47.418;18.882;2023-11-21T12:40:50;4.55;;;2.88;;
38379;SDS011;38377;47.418;18.882;2023-11-21T12:43:16;4.40;;;3.25;;
38379;SDS011;38377;47.418;18.882;2023-11-21T12:45:43;5.22;;;3.05;;
38379;SDS011;38377;47.418;18.882;2023-11-21T12:48:09;4.47;;;3.33;;
38379;SDS011;38377;47.418;18.882;2023-11-21T12:50:36;5.32;;;3.55;;
38379;SDS011;38377;47.418;18.882;2023-11-21T12:53:07;7.30;;;4.22;;
38379;SDS011;38377;47.418;18.882;2023-11-21T12:55:35;7.03;;;4.25;;
38379;SDS011;38377;47.418;18.882;2023-11-21T12:58:07;5.18;;;3.33;;
38379;SDS011;38377;47.418;18.882;2023-11-21T13:00:35;7.97;;;4.28;;
38379;SDS011;38377;47.418;18.882;2023-11-21T13:03:05;5.15;;;3.78;;
38379;SDS011;38377;47.418;18.882;2023-11-21T13:05:34;9.38;;;4.57;;
38379;SDS011;38377;47.418;18.882;2023-11-21T13:08:08;6.97;;;4.55;;
38379;SDS011;38377;47.418;18.882;2023-11-21T13:10:38;9.43;;;4.75;;
38379;SDS011;38377;47.418;18.882;2023-11-21T13:13:08;8.32;;;4.25;;
38379;SDS011;38377;47.418;18.882;2023-11-21T13:15:39;8.73;;;4.95;;
38379;SDS011;38377;47.418;18.882;2023-11-21T13:18:08;8.60;;;4.40;;
38379;SDS011;38377;47.418;18.882;2023-11-21T13:20:36;4.78;;;3.83;;
38379;SDS011;38377;47.418;18.882;2023-11-21T13:23:06;6.78;;;4.35;;
38379;SDS011;38377;47.418;18.882;2023-11-21T13:25:33;7.88;;;5.57;;
38379;SDS011;38377;47.418;18.882;2023-11-21T13:27:59;8.40;;;5.50;;
38379;SDS011;38377;47.418;18.882;2023-11-21T13:30:26;5.30;;;4.28;;
38379;SDS011;38377;47.418;18.882;2023-11-21T13:32:53;7.57;;;5.30;;
38379;SDS011;38377;47.418;18.882;2023-11-21T13:35:22;10.45;;;5.65;;
38379;SDS011;38377;47.418;18.882;2023-11-21T13:37:57;8.65;;;4.90;;
38379;SDS011;38377;47.418;18.882;2023-11-21T13:40:39;9.98;;;5.22;;
38379;SDS011;38377;47.418;18.882;2023-11-21T13:43:14;7.95;;;5.13;;
38379;SDS011;38377;47.418;18.882;2023-11-21T13:45:44;7.65;;;4.57;;
38379;SDS011;38377;47.418;18.882;2023-11-21T13:48:11;17.15;;;10.48;;
38379;SDS011;38377;47.418;18.882;2023-11-21T13:50:39;20.90;;;8.50;;
38379;SDS011;38377;47.418;18.882;2023-11-21T13:53:13;6.63;;;4.47;;
38379;SDS011;38377;47.418;18.882;2023-11-21T13:55:48;8.48;;;5.78;;
38379;SDS011;38377;47.418;18.882;2023-11-21T13:58:14;9.57;;;5.97;;
38379;SDS011;38377;47.418;18.882;2023-11-21T14:00:45;10.90;;;6.75;;
38379;SDS011;38377;47.418;18.882;2023-11-21T14:03:12;8.38;;;6.35;;
38379;SDS011;38377;47.418;18.882;2023-11-21T14:05:46;13.18;;;7.72;;
38379;SDS011;38377;47.418;18.882;2023-11-21T14:08:18;11.85;;;7.25;;
38379;SDS011;38377;47.418;18.882;2023-11-21T14:10:45;10.40;;;6.32;;
38379;SDS011;38377;47.418;18.882;2023-11-21T14:13:16;10.05;;;7.22;;
38379;SDS011;38377;47.418;18.882;2023-11-21T14:15:42;10.82;;;6.35;;
38379;SDS011;38377;47.418;18.882;2023-11-21T14:18:11;11.32;;;7.00;;
38379;SDS011;38377;47.418;18.882;2023-11-21T14:20:42;10.90;;;6.82;;
38379;SDS011;38377;47.418;18.882;2023-11-21T14:23:09;8.32;;;6.22;;
38379;SDS011;38377;47.418;18.882;2023-11-21T14:25:36;8.55;;;6.10;;
38379;SDS011;38377;47.418;18.882;2023-11-21T14:28:04;10.23;;;6.53;;
38379;SDS011;38377;47.418;18.882;2023-11-21T14:30:31;13.35;;;10.70;;
38379;SDS011;38377;47.418;18.882;2023-11-21T14:33:00;18.73;;;11.48;;
38379;SDS011;38377;47.418;18.882;2023-11-21T14:35:27;12.85;;;9.38;;
38379;SDS011;38377;47.418;18.882;2023-11-21T14:37:52;9.77;;;8.38;;
38379;SDS011;38377;47.418;18.882;2023-11-21T14:40:18;12.63;;;6.97;;
38379;SDS011;38377;47.418;18.882;2023-11-21T14:42:49;15.50;;;8.82;;